Data for 07/04/2010

Time Sea-Level Adjusted Pressure Absolute Pressure Temperature Relative Humidity Dew Point   
(mb) (inHg) (mb) (inHg) (C) (F) (%) (C) (F)
00:05 1018 30.06 848 25.04 9.8 49.7 65 3.7 38.6
00:10 1018 30.06 848 25.04 9.5 49.1 67 3.6 38.5
00:15 1019 30.09 848 25.04 9.4 48.8 67 3.6 38.5
00:20 1019 30.09 848 25.04 9 48.3 70 3.8 38.9
00:25 1019 30.09 848 25.04 8.8 47.8 68 3.2 37.8
00:30 1019 30.09 848 25.04 8.9 48 68 3.3 38
00:35 1019 30.09 848 25.04 9 48.2 67 3.1 37.7
00:40 1019 30.09 848 25.04 9.1 48.4 67 3.4 38
00:45 1019 30.09 848 25.04 9.1 48.3 67 3.4 38.1
00:50 1019 30.09 848 25.04 8.9 48.1 68 3.4 38
00:55 1019 30.09 848 25.04 8.7 47.7 69 3.3 38
01:00 1019 30.09 848 25.04 8.6 47.4 69 3.2 37.8
01:05 1019 30.09 848 25.04 8.5 47.2 69 3.2 37.7
01:10 1019 30.09 848 25.04 8.4 47 70 3.3 37.9
01:15 1019 30.09 848 25.04 8.2 46.7 70 3.1 37.6
01:20 1019 30.09 848 25.04 8.1 46.5 72 3.2 37.8
01:25 1019 30.09 848 25.04 8 46.5 71 3.2 37.7
01:30 1019 30.09 848 25.04 8.1 46.6 70 3 37.4
01:35 1019 30.09 848 25.04 8.2 46.7 71 3.2 37.8
01:40 1019 30.09 848 25.04 8.2 46.7 69 2.9 37.3
01:45 1019 30.09 848 25.04 8.2 46.8 69 2.9 37.3
01:50 1019 30.09 848 25.04 8 46.4 72 3.3 37.9
01:55 1019 30.09 848 25.04 7.6 45.7 74 3.3 37.9
02:00 1019 30.09 848 25.04 7.4 45.3 74 3.1 37.6
02:05 1019 30.09 848 25.04 7.1 44.7 75 3 37.4
02:10 1019 30.09 848 25.04 7 44.5 74 2.7 36.9
02:15 1019 30.09 848 25.04 7.1 44.7 73 2.6 36.7
02:20 1019 30.09 848 25.04 7.1 44.8 72 2.5 36.5
02:25 1019 30.09 848 25.04 7.2 44.9 72 2.5 36.4
02:30 1019 30.09 848 25.04 7.3 45.1 71 2.3 36.2
02:35 1019 30.09 848 25.04 7.3 45.1 70 2.2 35.9
02:40 1019 30.09 848 25.04 7.4 45.4 70 2.3 36.1
02:45 1019 30.09 848 25.04 7.5 45.4 70 2.3 36.2
02:50 1019 30.09 848 25.04 7.5 45.4 69 2.2 36
02:55 1019 30.09 848 25.04 7.4 45.4 71 2.5 36.4
03:00 1019 30.09 848 25.04 7.3 45.1 72 2.6 36.6
03:05 1019 30.09 848 25.04 7.1 44.7 73 2.6 36.7
03:10 1019 30.09 848 25.04 6.8 44.3 75 2.7 36.8
03:15 1019 30.09 848 25.04 6.6 43.8 74 2.3 36.1
03:20 1019 30.09 848 25.04 6.8 44.2 74 2.5 36.5
03:25 1019 30.09 848 25.04 6.7 44.1 74 2.4 36.4
03:30 1019 30.09 848 25.04 6.7 44.1 74 2.4 36.3
03:35 1019 30.09 848 25.04 6.6 44 74 2.4 36.3
03:40 1019 30.09 849 25.07 6.5 43.7 74 2.2 35.9
03:45 1019 30.09 849 25.07 6.6 43.8 73 2 35.7
03:50 1020 30.12 849 25.07 6.5 43.8 73 2.1 35.8
03:55 1020 30.12 849 25.07 6.5 43.7 72 1.9 35.4
04:00 1020 30.12 849 25.07 6.5 43.6 73 2.1 35.7
04:05 1020 30.12 849 25.07 6.5 43.7 71 1.6 34.9
04:10 1020 30.12 849 25.07 7.1 44.7 67 1.4 34.6
04:15 1020 30.12 849 25.07 7.5 45.5 66 1.7 35
04:20 1019 30.09 849 25.07 7.5 45.5 68 1.9 35.4
04:25 1019 30.09 849 25.07 7.1 44.7 70 2 35.7
04:30 1019 30.09 849 25.07 6.7 44.1 71 1.9 35.5
04:35 1019 30.09 849 25.07 6.5 43.6 72 1.8 35.3
04:40 1019 30.09 849 25.07 5.9 42.6 75 1.8 35.3
04:45 1019 30.09 849 25.07 5.9 42.6 74 1.6 34.8
04:50 1019 30.09 849 25.07 6.1 42.9 74 1.8 35.3
04:55 1019 30.09 849 25.07 5.9 42.6 75 1.8 35.3
05:00 1019 30.09 849 25.07 5.8 42.4 76 1.9 35.5
05:05 1019 30.09 849 25.07 5.6 42 78 2 35.6
05:10 1019 30.09 849 25.07 5.3 41.6 78 1.8 35.3
05:15 1019 30.09 849 25.07 5.3 41.6 78 1.7 35.1
05:20 1019 30.09 849 25.07 5.5 41.9 75 1.5 34.7
05:25 1019 30.09 849 25.07 5.9 42.6 74 1.6 34.9
05:30 1019 30.09 849 25.07 5.9 42.7 73 1.4 34.6
05:35 1019 30.09 849 25.07 6.1 43 72 1.4 34.5
05:40 1019 30.09 849 25.07 6.5 43.6 70 1.4 34.5
05:45 1020 30.12 849 25.07 6.4 43.6 71 1.5 34.7
05:50 1020 30.12 849 25.07 6.2 43.2 72 1.6 34.8
05:55 1020 30.12 849 25.07 5.9 42.7 73 1.5 34.7
06:00 1020 30.12 849 25.07 5.8 42.4 74 1.5 34.7
06:05 1020 30.12 849 25.07 5.8 42.5 73 1.4 34.6
06:10 1020 30.12 849 25.07 5.9 42.7 72 1.3 34.4
06:15 1020 30.12 849 25.07 6.1 42.9 73 1.6 34.8
06:20 1020 30.12 849 25.07 6.1 42.9 72 1.4 34.5
06:25 1020 30.12 849 25.07 6.3 43.4 71 1.4 34.5
06:30 1020 30.12 849 25.07 6.3 43.4 73 1.9 35.4
06:35 1020 30.12 849 25.07 6.2 43.1 72 1.5 34.6
06:40 1020 30.12 849 25.07 6.3 43.4 71 1.5 34.7
06:45 1020 30.12 849 25.07 6.6 43.8 70 1.6 34.8
06:50 1020 30.12 849 25.07 6.7 44.1 70 1.7 35.1
06:55 1020 30.12 849 25.07 7 44.7 70 1.9 35.4
07:00 1020 30.12 849 25.07 7.6 45.7 67 1.9 35.5
07:05 1020 30.12 849 25.07 8 46.4 66 2.2 35.9
07:10 1020 30.12 849 25.07 8.2 46.8 66 2.3 36.2
07:15 1019 30.09 849 25.07 8.5 47.3 65 2.3 36.1
07:20 1019 30.09 849 25.07 9.1 48.3 65 3 37.3
07:25 1019 30.09 849 25.07 9.6 49.3 62 2.7 36.8
07:30 1019 30.09 849 25.07 10.1 50.1 61 2.8 37.1
07:35 1019 30.09 849 25.07 10.4 50.7 60 3.1 37.5
07:40 1019 30.09 849 25.07 10.8 51.4 59 3.1 37.5
07:45 1019 30.09 849 25.07 10.7 51.2 62 3.6 38.6
07:50 1019 30.09 849 25.07 10.4 50.6 63 3.6 38.4
07:55 1019 30.09 849 25.07 11 51.9 58 3.1 37.6
08:00 1019 30.09 849 25.07 11.5 52.7 57 3.3 37.9
08:05 1019 30.09 849 25.07 12.1 53.7 51 2.3 36.1
08:10 1019 30.09 849 25.07 12.1 53.7 51 2.2 36
08:15 1019 30.09 849 25.07 12.4 54.3 48 1.7 35.1
08:20 1019 30.09 849 25.07 12.8 55.1 48 2.3 36.2
08:25 1019 30.09 849 25.07 13 55.3 50 2.8 37
08:30 1019 30.09 849 25.07 13 55.3 48 2.2 35.9
08:35 1019 30.09 849 25.07 13.5 56.4 46 2.1 35.8
08:40 1019 30.09 849 25.07 13.7 56.7 45 2.1 35.8
08:45 1019 30.09 848 25.04 13.8 56.8 45 2 35.7
08:50 1019 30.09 848 25.04 13.9 56.9 44 1.9 35.4
08:55 1019 30.09 848 25.04 14.3 57.7 43 1.8 35.3
09:00 1019 30.09 849 25.07 13.9 57.1 44 2.1 35.8
09:05 1019 30.09 848 25.04 13.8 56.8 44 1.8 35.3
09:10 1019 30.09 848 25.04 14 57.2 43 1.8 35.2
09:15 1019 30.09 848 25.04 14.2 57.5 43 1.8 35.2
09:20 1019 30.09 848 25.04 14.5 58.1 42 1.8 35.2
09:25 1019 30.09 848 25.04 14.8 58.6 40 1.5 34.7
09:30 1019 30.09 848 25.04 15.3 59.5 39 1.6 34.8
09:35 1019 30.09 848 25.04 15 58.9 41 1.8 35.2
09:40 1019 30.09 848 25.04 14.3 57.8 40 1 33.7
09:45 1019 30.09 848 25.04 14.5 58.1 39 0.7 33.3
09:50 1019 30.09 848 25.04 14.1 57.4 41 1.2 34.2
09:55 1019 30.09 848 25.04 14.8 58.6 39 0.9 33.7
10:00 1019 30.09 848 25.04 14.5 58.1 40 1.2 34.2
10:05 1019 30.09 848 25.04 14.9 58.8 39 1 33.7
10:10 1019 30.09 848 25.04 15.1 59.1 39 1.2 34.2
10:15 1019 30.09 848 25.04 15.7 60.2 36 0.8 33.4
10:20 1019 30.09 848 25.04 15.7 60.2 38 1.6 34.8
10:25 1019 30.09 848 25.04 15.7 60.3 36 0.7 33.3
10:30 1019 30.09 848 25.04 16.2 61.1 35 0.7 33.3
10:35 1019 30.09 848 25.04 16 60.8 35 0.6 33
10:40 1019 30.09 848 25.04 15.4 59.8 36 0.4 32.6
10:45 1019 30.09 848 25.04 15.8 60.4 35 0.6 33.1
10:50 1019 30.09 848 25.04 16.4 61.4 36 1.3 34.4
10:55 1018 30.06 848 25.04 16.4 61.5 34 0.6 33.1
11:00 1018 30.06 848 25.04 16.4 61.5 33 0.3 32.6
11:05 1018 30.06 848 25.04 16.4 61.5 33 0.1 32.2
11:10 1018 30.06 848 25.04 16.4 61.5 33 0.4 32.7
11:15 1018 30.06 848 25.04 16 60.8 32 -0.4 31.3
11:20 1018 30.06 848 25.04 16.4 61.5 35 0.9 33.6
11:25 1018 30.06 848 25.04 16.4 61.6 35 1.2 34.2
11:30 1018 30.06 848 25.04 17 62.6 34 1.1 34
11:35 1018 30.06 848 25.04 17 62.7 34 1.1 34
11:40 1018 30.06 848 25.04 17.7 63.9 31 0.4 32.7
11:45 1018 30.06 848 25.04 18.3 64.9 31 1.1 33.9
11:50 1018 30.06 847 25.01 17.9 64.2 33 1.5 34.6
11:55 1018 30.06 847 25.01 17.8 64.1 32 1.1 33.9
12:00 1018 30.06 847 25.01 17.3 63.2 34 1.4 34.5
12:05 1018 30.06 847 25.01 17.3 63.2 33 1.2 34.1
12:10 1018 30.06 847 25.01 18 64.4 33 1.5 34.8
12:15 1018 30.06 847 25.01 17.7 63.8 35 2.1 35.8
12:20 1018 30.06 847 25.01 17.4 63.4 34 1.4 34.5
12:25 1018 30.06 847 25.01 17.9 64.3 32 1.3 34.4
12:30 1018 30.06 847 25.01 18.1 64.6 32 1.5 34.7
12:35 1018 30.06 847 25.01 18.5 65.3 33 2.2 36
12:40 1018 30.06 847 25.01 18.4 65 33 1.8 35.2
12:45 1018 30.06 847 25.01 18.7 65.6 33 2.1 35.7
12:50 1018 30.06 847 25.01 18.6 65.4 34 2.7 36.8
12:55 1018 30.06 847 25.01 18.3 64.9 36 2.9 37.3
13:00 1018 30.06 847 25.01 18.4 65.1 35 2.7 36.9
13:05 1018 30.06 847 25.01 17.5 63.6 38 3.1 37.6
13:10 1017 30.03 847 25.01 18.1 64.5 35 2.7 36.8
13:15 1017 30.03 847 25.01 18.6 65.4 34 2.5 36.6
13:20 1017 30.03 847 25.01 18.3 64.9 37 3.5 38.3
13:25 1017 30.03 847 25.01 18.5 65.3 34 2.6 36.7
13:30 1017 30.03 846 24.98 19.2 66.6 33 2.8 37.1
13:35 1017 30.03 846 24.98 19.3 66.7 33 3 37.4
13:40 1017 30.03 846 24.98 19.5 67.1 33 3.1 37.7
13:45 1017 30.03 846 24.98 19.9 67.7 33 3.1 37.6
13:50 1017 30.03 846 24.98 19.4 67 36 4.1 39.4
13:55 1017 30.03 846 24.98 19.4 66.8 35 3.9 39
14:00 1017 30.03 846 24.98 19.6 67.3 35 4 39.2
14:05 1017 30.03 846 24.98 19.8 67.7 34 3.5 38.3
14:10 1017 30.03 846 24.98 20 68 33 3.2 37.7
14:15 1017 30.03 846 24.98 20.4 68.8 32 3.3 37.9
14:20 1017 30.03 846 24.98 20.2 68.4 32 3.3 37.9
14:25 1017 30.03 846 24.98 21 69.8 32 3.8 38.8
14:30 1017 30.03 846 24.98 21.3 70.3 31 3.7 38.7
14:35 1016 30 846 24.98 21.4 70.5 30 3.1 37.6
14:40 1016 30 846 24.98 21.1 70.1 32 3.9 39.1
14:45 1016 30 846 24.98 20.8 69.4 32 3.7 38.7
14:50 1016 30 846 24.98 21.2 70.1 31 3.4 38.2
14:55 1016 30 845 24.95 21 69.7 33 4.2 39.5
15:00 1016 30 845 24.95 21 69.8 32 3.8 38.9
15:05 1016 30 845 24.95 21.7 71 33 4.9 40.8
15:10 1016 30 845 24.95 20.9 69.5 32 3.7 38.6
15:15 1016 30 845 24.95 21.7 71 30 3.5 38.3
15:20 1016 30 845 24.95 22 71.5 29 3.3 37.9
15:25 1016 30 845 24.95 22.3 72.2 27 2.8 37.1
15:30 1016 30 845 24.95 22.6 72.7 28 3.2 37.7
15:35 1016 30 845 24.95 22.2 72 26 1.8 35.3
15:40 1016 30 845 24.95 22.2 71.9 26 2 35.7
15:45 1016 30 845 24.95 22.3 72.1 27 2.5 36.5
15:50 1016 30 845 24.95 21.8 71.3 27 2 35.6
15:55 1016 30 845 24.95 22.7 72.9 25 2 35.6
16:00 1016 30 845 24.95 22.6 72.6 27 2.6 36.7
16:05 1015 29.97 845 24.95 22.9 73.2 27 3.2 37.8
16:10 1015 29.97 845 24.95 22.8 73 26 2.7 36.9
16:15 1015 29.97 845 24.95 22.6 72.7 22 -0.2 31.7
16:20 1015 29.97 845 24.95 23.1 73.6 17 -3.4 25.9
16:25 1015 29.97 844 24.92 23.2 73.7 18 -2 28.4
16:30 1015 29.97 844 24.92 23.6 74.4 15 -4.5 23.9
16:35 1015 29.97 844 24.92 22.9 73.2 17 -3.1 26.4
16:40 1015 29.97 844 24.92 23.2 73.8 15 -4.5 23.9
16:45 1015 29.97 844 24.92 23.3 73.9 16 -3.8 25.1
16:50 1015 29.97 844 24.92 22.9 73.2 17 -3.2 26.2
16:55 1015 29.97 844 24.92 22.5 72.5 16 -4.1 24.7
17:00 1015 29.97 844 24.92 22.2 72 17 -4.1 24.6
17:05 1015 29.97 844 24.92 22.3 72.2 18 -3.2 26.2
17:10 1015 29.97 844 24.92 22.3 72.1 17 -4 24.9
17:15 1015 29.97 844 24.92 22.3 72.1 21 -1.2 29.8
17:20 1015 29.97 844 24.92 22.1 71.7 24 1 33.7
17:25 1015 29.97 844 24.92 21.6 70.8 27 2 35.7
17:30 1015 29.97 844 24.92 21.2 70.1 29 2.5 36.5
17:35 1015 29.97 844 24.92 21.2 70.2 28 2.3 36.1
17:40 1015 29.97 844 24.92 21 69.7 29 2.3 36.1
17:45 1015 29.97 844 24.92 20.8 69.5 30 2.7 36.9
17:50 1015 29.97 844 24.92 20.7 69.3 30 2.5 36.6
17:55 1015 29.97 844 24.92 20.6 69.1 29 2.4 36.3
18:00 1015 29.97 844 24.92 20.4 68.8 29 1.9 35.4
18:05 1015 29.97 844 24.92 20.5 68.9 28 1.7 35.1
18:10 1015 29.97 844 24.92 20.7 69.2 28 1.6 34.8
18:15 1015 29.97 844 24.92 20.8 69.4 28 1.8 35.3
18:20 1015 29.97 844 24.92 21 69.9 28 1.8 35.3
18:25 1014 29.94 844 24.92 20.9 69.6 27 1.6 34.8
18:30 1014 29.94 844 24.92 20.6 69 29 2.1 35.8
18:35 1014 29.94 844 24.92 20.6 69.1 29 2.2 35.9
18:40 1014 29.94 844 24.92 20.8 69.4 28 1.9 35.5
18:45 1014 29.94 844 24.92 20.8 69.4 28 1.7 35
18:50 1014 29.94 843 24.89 20.8 69.5 29 2.4 36.3
18:55 1014 29.94 843 24.89 20.4 68.7 30 2.5 36.5
19:00 1014 29.94 843 24.89 20 68 31 2.6 36.7
19:05 1014 29.94 843 24.89 20 68.1 31 2.5 36.5
19:10 1014 29.94 844 24.92 20 68.1 30 1.9 35.5
19:15 1014 29.94 844 24.92 20.2 68.3 30 2.1 35.8
19:20 1014 29.94 844 24.92 20.3 68.6 30 2.2 36
19:25 1015 29.97 844 24.92 20.3 68.5 34 3.9 39
19:30 1015 29.97 844 24.92 19.6 67.3 41 6.1 42.9
19:35 1015 29.97 844 24.92 19.3 66.7 39 5.1 41.1
19:40 1015 29.97 844 24.92 19.2 66.5 36 4 39.1
19:45 1015 29.97 844 24.92 19.5 67 34 3.5 38.3
19:50 1014 29.94 844 24.92 19.6 67.2 26 -0.2 31.7
19:55 1015 29.97 844 24.92 19.8 67.7 28 1.1 33.9
20:00 1015 29.97 844 24.92 19.5 67.1 29 1.1 34
20:05 1015 29.97 844 24.92 19.4 66.8 28 0.7 33.3
20:10 1015 29.97 844 24.92 19.3 66.7 27 0.2 32.4
20:15 1015 29.97 844 24.92 19 66.2 21 -3.5 25.8
20:20 1015 29.97 844 24.92 19.5 67.2 22 -2.5 27.6
20:25 1015 29.97 844 24.92 19.7 67.4 25 -0.9 30.4
20:30 1015 29.97 844 24.92 19.3 66.8 28 0.3 32.5
20:35 1015 29.97 844 24.92 19.1 66.3 30 1.1 34
20:40 1015 29.97 844 24.92 18.8 65.9 33 2.3 36.1
20:45 1015 29.97 844 24.92 18.7 65.6 33 2.3 36.1
20:50 1015 29.97 844 24.92 18.6 65.4 34 2.5 36.4
20:55 1015 29.97 844 24.92 18.3 65 35 2.5 36.6
21:00 1015 29.97 844 24.92 17.9 64.2 36 2.6 36.7
21:05 1015 29.97 844 24.92 17.7 63.9 36 2.7 36.8
21:10 1015 29.97 844 24.92 17.8 64 34 2 35.5
21:15 1015 29.97 844 24.92 17.8 64 35 2.1 35.8
21:20 1015 29.97 844 24.92 17.9 64.2 33 1.6 34.9
21:25 1015 29.97 844 24.92 17.9 64.2 33 1.4 34.5
21:30 1015 29.97 845 24.95 17.9 64.2 32 1.3 34.3
21:35 1015 29.97 845 24.95 18 64.3 35 2.4 36.3
21:40 1015 29.97 845 24.95 17.7 63.9 36 2.7 36.9
21:45 1015 29.97 845 24.95 17.4 63.3 40 3.9 39.1
21:50 1016 30 845 24.95 17.1 62.9 43 4.6 40.3
21:55 1016 30 845 24.95 16.9 62.4 43 4.4 40
22:00 1016 30 845 24.95 16.7 62.1 45 4.8 40.7
22:05 1016 30 845 24.95 16.7 62 45 4.7 40.5
22:10 1016 30 845 24.95 16.7 62 37 2 35.6
22:15 1016 30 845 24.95 16.8 62.3 40 3.2 37.8
22:20 1016 30 845 24.95 16.8 62.2 40 3.1 37.6
22:25 1016 30 845 24.95 16.6 61.8 41 3.4 38.2
22:30 1016 30 845 24.95 16.5 61.7 38 2.4 36.3
22:35 1016 30 845 24.95 16.4 61.6 42 3.6 38.5
22:40 1016 30 845 24.95 16.3 61.3 41 3 37.3
22:45 1016 30 846 24.98 15.9 60.7 46 4.3 39.8
22:50 1017 30.03 846 24.98 15.2 59.4 53 5.8 42.5
22:55 1017 30.03 846 24.98 14.4 57.9 59 6.7 44
23:00 1017 30.03 846 24.98 14 57.2 58 6 42.8
23:05 1017 30.03 846 24.98 13.9 57.1 61 6.7 44.1
23:10 1017 30.03 846 24.98 13.9 57.1 57 5.7 42.2
23:15 1017 30.03 846 24.98 14 57.1 56 5.5 41.9
23:20 1017 30.03 846 24.98 14 57.1 54 4.9 40.7
23:25 1017 30.03 846 24.98 13.9 57.1 58 5.9 42.6
23:30 1017 30.03 846 24.98 13.8 56.8 56 5.2 41.4
23:35 1017 30.03 846 24.98 13.6 56.4 58 5.6 42
23:40 1017 30.03 846 24.98 13.5 56.2 61 6.1 43
23:45 1017 30.03 846 24.98 13 55.3 65 6.7 44
23:50 1017 30.03 846 24.98 12.7 54.9 69 7.2 44.9
23:55 1016 30 845 24.95 12.1 53.7 77 8.1 46.7
24:00 1016 30 845 24.95 11.6 52.9 77 7.7 45.8